sensor_id;sensor_type;location;lat;lon;timestamp;temperature;humidity
14471;DHT22;7321;50.802;4.336;2024-03-17T00:01:13;9.60;99.90
14471;DHT22;7321;50.802;4.336;2024-03-17T00:03:38;9.60;99.90
14471;DHT22;7321;50.802;4.336;2024-03-17T00:06:04;9.60;99.90
14471;DHT22;7321;50.802;4.336;2024-03-17T00:08:30;9.50;99.90
14471;DHT22;7321;50.802;4.336;2024-03-17T00:10:56;9.50;99.90
14471;DHT22;7321;50.802;4.336;2024-03-17T00:13:23;9.50;99.90
14471;DHT22;7321;50.802;4.336;2024-03-17T00:15:50;9.50;99.90
14471;DHT22;7321;50.802;4.336;2024-03-17T00:18:16;9.60;99.90
14471;DHT22;7321;50.802;4.336;2024-03-17T00:20:42;9.70;99.90
14471;DHT22;7321;50.802;4.336;2024-03-17T00:23:09;9.70;99.90
14471;DHT22;7321;50.802;4.336;2024-03-17T00:25:37;9.50;99.90
14471;DHT22;7321;50.802;4.336;2024-03-17T00:28:04;9.70;99.90
14471;DHT22;7321;50.802;4.336;2024-03-17T00:30:30;9.70;99.90
14471;DHT22;7321;50.802;4.336;2024-03-17T00:32:57;9.60;99.90
14471;DHT22;7321;50.802;4.336;2024-03-17T00:35:26;9.70;99.90
14471;DHT22;7321;50.802;4.336;2024-03-17T00:37:52;9.70;99.90
14471;DHT22;7321;50.802;4.336;2024-03-17T00:40:20;9.80;99.90
14471;DHT22;7321;50.802;4.336;2024-03-17T00:42:46;9.80;99.90
14471;DHT22;7321;50.802;4.336;2024-03-17T00:45:12;9.80;99.90
14471;DHT22;7321;50.802;4.336;2024-03-17T00:47:42;9.80;99.90
14471;DHT22;7321;50.802;4.336;2024-03-17T00:50:11;9.90;99.90
14471;DHT22;7321;50.802;4.336;2024-03-17T00:52:38;9.90;99.90
14471;DHT22;7321;50.802;4.336;2024-03-17T00:55:05;9.70;99.90
14471;DHT22;7321;50.802;4.336;2024-03-17T00:57:31;9.70;99.90
14471;DHT22;7321;50.802;4.336;2024-03-17T00:59:57;9.60;99.90
14471;DHT22;7321;50.802;4.336;2024-03-17T01:02:31;9.70;99.90
14471;DHT22;7321;50.802;4.336;2024-03-17T01:04:57;9.70;99.90
14471;DHT22;7321;50.802;4.336;2024-03-17T01:07:23;9.80;99.90
14471;DHT22;7321;50.802;4.336;2024-03-17T01:09:48;9.80;99.90
14471;DHT22;7321;50.802;4.336;2024-03-17T01:12:14;9.80;99.90
14471;DHT22;7321;50.802;4.336;2024-03-17T01:14:40;9.70;99.90
14471;DHT22;7321;50.802;4.336;2024-03-17T01:17:06;9.80;99.90
14471;DHT22;7321;50.802;4.336;2024-03-17T01:19:32;9.80;99.90
14471;DHT22;7321;50.802;4.336;2024-03-17T01:22:01;10.10;99.90
14471;DHT22;7321;50.802;4.336;2024-03-17T01:24:28;10.30;99.90
14471;DHT22;7321;50.802;4.336;2024-03-17T01:27:03;10.40;99.90
14471;DHT22;7321;50.802;4.336;2024-03-17T01:29:29;10.40;99.90
14471;DHT22;7321;50.802;4.336;2024-03-17T01:31:55;10.50;99.90
14471;DHT22;7321;50.802;4.336;2024-03-17T01:34:21;10.50;99.90
14471;DHT22;7321;50.802;4.336;2024-03-17T01:36:47;10.60;99.90
14471;DHT22;7321;50.802;4.336;2024-03-17T01:39:13;10.70;99.90
14471;DHT22;7321;50.802;4.336;2024-03-17T01:41:42;10.60;99.90
14471;DHT22;7321;50.802;4.336;2024-03-17T01:44:07;10.60;99.90
14471;DHT22;7321;50.802;4.336;2024-03-17T01:46:34;10.50;99.90
14471;DHT22;7321;50.802;4.336;2024-03-17T01:49:00;10.50;99.90
14471;DHT22;7321;50.802;4.336;2024-03-17T01:51:26;10.40;99.90
14471;DHT22;7321;50.802;4.336;2024-03-17T01:53:53;10.30;99.90
14471;DHT22;7321;50.802;4.336;2024-03-17T01:56:20;10.30;99.90
14471;DHT22;7321;50.802;4.336;2024-03-17T01:58:46;10.20;99.90
14471;DHT22;7321;50.802;4.336;2024-03-17T02:01:12;10.20;99.90
14471;DHT22;7321;50.802;4.336;2024-03-17T02:03:44;10.20;99.90
14471;DHT22;7321;50.802;4.336;2024-03-17T02:06:09;10.30;99.90
14471;DHT22;7321;50.802;4.336;2024-03-17T02:08:49;10.40;99.90
14471;DHT22;7321;50.802;4.336;2024-03-17T02:11:28;10.50;99.90
14471;DHT22;7321;50.802;4.336;2024-03-17T02:13:55;10.60;99.90
14471;DHT22;7321;50.802;4.336;2024-03-17T02:16:21;10.50;99.90
14471;DHT22;7321;50.802;4.336;2024-03-17T02:18:47;10.50;99.90
14471;DHT22;7321;50.802;4.336;2024-03-17T02:21:14;10.60;99.90
14471;DHT22;7321;50.802;4.336;2024-03-17T02:23:43;10.60;99.90
14471;DHT22;7321;50.802;4.336;2024-03-17T02:26:09;10.40;99.90
14471;DHT22;7321;50.802;4.336;2024-03-17T02:28:43;10.30;99.90
14471;DHT22;7321;50.802;4.336;2024-03-17T02:31:11;10.20;99.90
14471;DHT22;7321;50.802;4.336;2024-03-17T02:33:37;10.30;99.90
14471;DHT22;7321;50.802;4.336;2024-03-17T02:36:05;10.60;99.90
14471;DHT22;7321;50.802;4.336;2024-03-17T02:38:33;10.50;99.90
14471;DHT22;7321;50.802;4.336;2024-03-17T02:41:18;10.50;99.90
14471;DHT22;7321;50.802;4.336;2024-03-17T02:43:44;10.60;99.90
14471;DHT22;7321;50.802;4.336;2024-03-17T02:46:12;10.60;99.90
14471;DHT22;7321;50.802;4.336;2024-03-17T02:48:42;10.40;99.90
14471;DHT22;7321;50.802;4.336;2024-03-17T02:51:16;10.50;99.90
14471;DHT22;7321;50.802;4.336;2024-03-17T02:53:44;10.40;99.90
14471;DHT22;7321;50.802;4.336;2024-03-17T02:56:14;10.40;99.90
14471;DHT22;7321;50.802;4.336;2024-03-17T02:58:46;10.50;99.90
14471;DHT22;7321;50.802;4.336;2024-03-17T03:01:12;10.60;99.90
14471;DHT22;7321;50.802;4.336;2024-03-17T03:03:38;10.70;99.90
14471;DHT22;7321;50.802;4.336;2024-03-17T03:06:04;10.80;99.90
14471;DHT22;7321;50.802;4.336;2024-03-17T03:08:35;10.80;99.90
14471;DHT22;7321;50.802;4.336;2024-03-17T03:11:05;10.60;99.90
14471;DHT22;7321;50.802;4.336;2024-03-17T03:13:32;10.70;99.90
14471;DHT22;7321;50.802;4.336;2024-03-17T03:15:57;10.60;99.90
14471;DHT22;7321;50.802;4.336;2024-03-17T03:18:23;10.80;99.90
14471;DHT22;7321;50.802;4.336;2024-03-17T03:20:52;10.80;99.90
14471;DHT22;7321;50.802;4.336;2024-03-17T03:23:19;10.90;99.90
14471;DHT22;7321;50.802;4.336;2024-03-17T03:25:45;10.80;99.90
14471;DHT22;7321;50.802;4.336;2024-03-17T03:28:13;10.90;99.90
14471;DHT22;7321;50.802;4.336;2024-03-17T03:30:39;10.80;99.90
14471;DHT22;7321;50.802;4.336;2024-03-17T03:33:05;10.90;99.90
14471;DHT22;7321;50.802;4.336;2024-03-17T03:35:31;10.80;99.90
14471;DHT22;7321;50.802;4.336;2024-03-17T03:37:58;10.90;99.90
14471;DHT22;7321;50.802;4.336;2024-03-17T03:40:26;10.80;99.90
14471;DHT22;7321;50.802;4.336;2024-03-17T03:42:52;10.70;99.90
14471;DHT22;7321;50.802;4.336;2024-03-17T03:45:19;10.70;99.90
14471;DHT22;7321;50.802;4.336;2024-03-17T03:47:46;10.70;99.90
14471;DHT22;7321;50.802;4.336;2024-03-17T03:50:14;10.60;99.90
14471;DHT22;7321;50.802;4.336;2024-03-17T03:52:40;10.50;99.90
14471;DHT22;7321;50.802;4.336;2024-03-17T03:55:08;10.40;99.90
14471;DHT22;7321;50.802;4.336;2024-03-17T03:57:43;10.30;99.90
14471;DHT22;7321;50.802;4.336;2024-03-17T04:00:21;10.30;99.90
14471;DHT22;7321;50.802;4.336;2024-03-17T04:02:51;10.30;99.90
14471;DHT22;7321;50.802;4.336;2024-03-17T04:05:17;10.20;99.90
14471;DHT22;7321;50.802;4.336;2024-03-17T04:07:44;10.30;99.90
14471;DHT22;7321;50.802;4.336;2024-03-17T04:10:12;10.40;99.90
14471;DHT22;7321;50.802;4.336;2024-03-17T04:12:39;10.30;99.90
14471;DHT22;7321;50.802;4.336;2024-03-17T04:15:05;10.10;99.90
14471;DHT22;7321;50.802;4.336;2024-03-17T04:17:36;10.00;99.90
14471;DHT22;7321;50.802;4.336;2024-03-17T04:20:03;10.10;99.90
14471;DHT22;7321;50.802;4.336;2024-03-17T04:22:30;9.90;99.90
14471;DHT22;7321;50.802;4.336;2024-03-17T04:24:56;10.00;99.90
14471;DHT22;7321;50.802;4.336;2024-03-17T04:27:28;9.90;99.90
14471;DHT22;7321;50.802;4.336;2024-03-17T04:29:58;10.10;99.90
14471;DHT22;7321;50.802;4.336;2024-03-17T04:32:24;10.20;99.90
14471;DHT22;7321;50.802;4.336;2024-03-17T04:34:50;10.20;99.90
14471;DHT22;7321;50.802;4.336;2024-03-17T04:37:16;10.20;99.90
14471;DHT22;7321;50.802;4.336;2024-03-17T04:39:44;10.30;99.90
14471;DHT22;7321;50.802;4.336;2024-03-17T04:42:14;10.20;99.90
14471;DHT22;7321;50.802;4.336;2024-03-17T04:44:44;10.20;99.90
14471;DHT22;7321;50.802;4.336;2024-03-17T04:47:10;10.10;99.90
14471;DHT22;7321;50.802;4.336;2024-03-17T04:49:36;10.20;99.90
14471;DHT22;7321;50.802;4.336;2024-03-17T04:52:03;10.10;99.90
14471;DHT22;7321;50.802;4.336;2024-03-17T04:54:30;10.10;99.90
14471;DHT22;7321;50.802;4.336;2024-03-17T04:56:56;10.20;99.90
14471;DHT22;7321;50.802;4.336;2024-03-17T04:59:22;10.10;99.90
14471;DHT22;7321;50.802;4.336;2024-03-17T05:01:48;10.00;99.90
14471;DHT22;7321;50.802;4.336;2024-03-17T05:04:14;10.10;99.90
14471;DHT22;7321;50.802;4.336;2024-03-17T05:06:41;10.20;99.90
14471;DHT22;7321;50.802;4.336;2024-03-17T05:09:14;10.20;99.90
14471;DHT22;7321;50.802;4.336;2024-03-17T05:11:40;10.30;99.90
14471;DHT22;7321;50.802;4.336;2024-03-17T05:14:07;10.20;99.90
14471;DHT22;7321;50.802;4.336;2024-03-17T05:16:33;10.10;99.90
14471;DHT22;7321;50.802;4.336;2024-03-17T05:18:59;10.00;99.90
14471;DHT22;7321;50.802;4.336;2024-03-17T05:21:25;10.10;99.90
14471;DHT22;7321;50.802;4.336;2024-03-17T05:23:52;10.10;99.90
14471;DHT22;7321;50.802;4.336;2024-03-17T05:26:18;10.20;99.90
14471;DHT22;7321;50.802;4.336;2024-03-17T05:28:44;10.10;99.90
14471;DHT22;7321;50.802;4.336;2024-03-17T05:31:10;10.10;99.90
14471;DHT22;7321;50.802;4.336;2024-03-17T05:33:39;10.10;99.90
14471;DHT22;7321;50.802;4.336;2024-03-17T05:36:05;9.90;99.90
14471;DHT22;7321;50.802;4.336;2024-03-17T05:38:32;9.80;99.90
14471;DHT22;7321;50.802;4.336;2024-03-17T05:41:07;9.80;99.90
14471;DHT22;7321;50.802;4.336;2024-03-17T05:43:37;10.00;99.90
14471;DHT22;7321;50.802;4.336;2024-03-17T05:46:11;10.00;99.90
14471;DHT22;7321;50.802;4.336;2024-03-17T05:48:40;10.10;99.90
14471;DHT22;7321;50.802;4.336;2024-03-17T05:51:08;10.10;99.90
14471;DHT22;7321;50.802;4.336;2024-03-17T05:53:35;10.10;99.90
14471;DHT22;7321;50.802;4.336;2024-03-17T05:56:03;10.10;99.90
14471;DHT22;7321;50.802;4.336;2024-03-17T05:58:29;10.10;99.90
14471;DHT22;7321;50.802;4.336;2024-03-17T06:00:55;10.10;99.90
14471;DHT22;7321;50.802;4.336;2024-03-17T06:03:21;10.20;99.90
14471;DHT22;7321;50.802;4.336;2024-03-17T06:05:48;10.40;99.90
14471;DHT22;7321;50.802;4.336;2024-03-17T06:08:14;10.20;99.90
14471;DHT22;7321;50.802;4.336;2024-03-17T06:10:44;10.30;99.90
14471;DHT22;7321;50.802;4.336;2024-03-17T06:13:11;10.20;99.90
14471;DHT22;7321;50.802;4.336;2024-03-17T06:15:43;10.10;99.90
14471;DHT22;7321;50.802;4.336;2024-03-17T06:18:11;10.00;99.90
14471;DHT22;7321;50.802;4.336;2024-03-17T06:20:44;10.10;99.90
14471;DHT22;7321;50.802;4.336;2024-03-17T06:23:11;10.10;99.90
14471;DHT22;7321;50.802;4.336;2024-03-17T06:25:47;10.30;99.90
14471;DHT22;7321;50.802;4.336;2024-03-17T06:28:16;10.30;99.90
14471;DHT22;7321;50.802;4.336;2024-03-17T06:30:46;10.30;99.90
14471;DHT22;7321;50.802;4.336;2024-03-17T06:33:19;10.10;99.90
14471;DHT22;7321;50.802;4.336;2024-03-17T06:35:47;10.10;99.90
14471;DHT22;7321;50.802;4.336;2024-03-17T06:38:13;10.10;99.90
14471;DHT22;7321;50.802;4.336;2024-03-17T06:40:41;10.10;99.90
14471;DHT22;7321;50.802;4.336;2024-03-17T06:43:07;10.30;99.90
14471;DHT22;7321;50.802;4.336;2024-03-17T06:45:34;10.40;99.90
14471;DHT22;7321;50.802;4.336;2024-03-17T06:47:59;10.30;99.90
14471;DHT22;7321;50.802;4.336;2024-03-17T06:50:25;10.50;99.90
14471;DHT22;7321;50.802;4.336;2024-03-17T06:52:51;10.60;99.90
14471;DHT22;7321;50.802;4.336;2024-03-17T06:55:18;10.80;99.90
14471;DHT22;7321;50.802;4.336;2024-03-17T06:57:44;10.70;99.90
14471;DHT22;7321;50.802;4.336;2024-03-17T07:00:11;10.60;99.90
14471;DHT22;7321;50.802;4.336;2024-03-17T07:02:40;10.70;99.90
14471;DHT22;7321;50.802;4.336;2024-03-17T07:05:07;10.70;99.90
14471;DHT22;7321;50.802;4.336;2024-03-17T07:07:33;10.80;99.90
14471;DHT22;7321;50.802;4.336;2024-03-17T07:09:59;10.80;99.90
14471;DHT22;7321;50.802;4.336;2024-03-17T07:12:30;10.80;99.90
14471;DHT22;7321;50.802;4.336;2024-03-17T07:14:56;10.90;99.90
14471;DHT22;7321;50.802;4.336;2024-03-17T07:17:22;10.90;99.90
14471;DHT22;7321;50.802;4.336;2024-03-17T07:19:48;10.80;99.90
14471;DHT22;7321;50.802;4.336;2024-03-17T07:22:15;10.90;99.90
14471;DHT22;7321;50.802;4.336;2024-03-17T07:24:40;10.80;99.90
14471;DHT22;7321;50.802;4.336;2024-03-17T07:27:09;10.90;99.90
14471;DHT22;7321;50.802;4.336;2024-03-17T07:29:39;11.00;99.90
14471;DHT22;7321;50.802;4.336;2024-03-17T07:32:05;11.20;99.90
14471;DHT22;7321;50.802;4.336;2024-03-17T07:34:32;11.30;99.90
14471;DHT22;7321;50.802;4.336;2024-03-17T07:37:00;11.50;99.90
14471;DHT22;7321;50.802;4.336;2024-03-17T07:39:29;11.60;99.90
14471;DHT22;7321;50.802;4.336;2024-03-17T07:42:01;11.60;99.90
14471;DHT22;7321;50.802;4.336;2024-03-17T07:44:30;11.70;99.90
14471;DHT22;7321;50.802;4.336;2024-03-17T07:47:03;11.80;99.90
14471;DHT22;7321;50.802;4.336;2024-03-17T07:49:31;11.90;99.90
14471;DHT22;7321;50.802;4.336;2024-03-17T07:51:57;12.00;99.90
14471;DHT22;7321;50.802;4.336;2024-03-17T07:54:26;12.20;99.90
14471;DHT22;7321;50.802;4.336;2024-03-17T07:56:53;12.20;99.90
14471;DHT22;7321;50.802;4.336;2024-03-17T07:59:19;12.10;99.90
14471;DHT22;7321;50.802;4.336;2024-03-17T08:01:45;12.20;99.90
14471;DHT22;7321;50.802;4.336;2024-03-17T08:04:11;12.20;99.90
14471;DHT22;7321;50.802;4.336;2024-03-17T08:06:39;12.40;99.90
14471;DHT22;7321;50.802;4.336;2024-03-17T08:09:04;12.50;99.90
14471;DHT22;7321;50.802;4.336;2024-03-17T08:11:30;12.60;99.90
14471;DHT22;7321;50.802;4.336;2024-03-17T08:13:56;12.60;99.90
14471;DHT22;7321;50.802;4.336;2024-03-17T08:16:22;12.30;99.90
14471;DHT22;7321;50.802;4.336;2024-03-17T08:18:48;12.20;99.90
14471;DHT22;7321;50.802;4.336;2024-03-17T08:21:14;12.30;99.90
14471;DHT22;7321;50.802;4.336;2024-03-17T08:23:40;12.40;99.90
14471;DHT22;7321;50.802;4.336;2024-03-17T08:26:08;12.30;99.90
14471;DHT22;7321;50.802;4.336;2024-03-17T08:28:35;12.40;99.90
14471;DHT22;7321;50.802;4.336;2024-03-17T08:31:02;12.40;99.90
14471;DHT22;7321;50.802;4.336;2024-03-17T08:33:28;12.40;99.90
14471;DHT22;7321;50.802;4.336;2024-03-17T08:35:58;12.60;99.90
14471;DHT22;7321;50.802;4.336;2024-03-17T08:38:25;12.60;99.90
14471;DHT22;7321;50.802;4.336;2024-03-17T08:40:53;12.70;99.90
14471;DHT22;7321;50.802;4.336;2024-03-17T08:43:20;12.80;99.90
14471;DHT22;7321;50.802;4.336;2024-03-17T08:46:00;12.70;99.90
14471;DHT22;7321;50.802;4.336;2024-03-17T08:48:32;12.70;99.90
14471;DHT22;7321;50.802;4.336;2024-03-17T08:50:59;12.80;99.90
14471;DHT22;7321;50.802;4.336;2024-03-17T08:53:25;13.00;99.90
14471;DHT22;7321;50.802;4.336;2024-03-17T08:55:52;13.10;99.90
14471;DHT22;7321;50.802;4.336;2024-03-17T08:58:19;13.30;99.90
14471;DHT22;7321;50.802;4.336;2024-03-17T09:00:45;13.40;99.90
14471;DHT22;7321;50.802;4.336;2024-03-17T09:03:11;13.50;99.90
14471;DHT22;7321;50.802;4.336;2024-03-17T09:05:42;13.70;99.90
14471;DHT22;7321;50.802;4.336;2024-03-17T09:08:24;13.80;99.90
14471;DHT22;7321;50.802;4.336;2024-03-17T09:10:51;14.00;99.90
14471;DHT22;7321;50.802;4.336;2024-03-17T09:13:22;14.10;99.90
14471;DHT22;7321;50.802;4.336;2024-03-17T09:15:56;14.20;99.90
14471;DHT22;7321;50.802;4.336;2024-03-17T09:18:23;14.10;99.90
14471;DHT22;7321;50.802;4.336;2024-03-17T09:21:00;14.20;99.90
14471;DHT22;7321;50.802;4.336;2024-03-17T09:23:27;14.30;99.90
14471;DHT22;7321;50.802;4.336;2024-03-17T09:26:02;14.30;99.90
14471;DHT22;7321;50.802;4.336;2024-03-17T09:28:35;14.40;99.90
14471;DHT22;7321;50.802;4.336;2024-03-17T09:31:02;14.40;99.90
14471;DHT22;7321;50.802;4.336;2024-03-17T09:33:29;14.20;99.90
14471;DHT22;7321;50.802;4.336;2024-03-17T09:36:00;14.20;99.90
14471;DHT22;7321;50.802;4.336;2024-03-17T09:38:29;14.00;99.90
14471;DHT22;7321;50.802;4.336;2024-03-17T09:40:56;13.90;99.90
14471;DHT22;7321;50.802;4.336;2024-03-17T09:43:27;13.90;99.90
14471;DHT22;7321;50.802;4.336;2024-03-17T09:45:54;14.00;99.90
14471;DHT22;7321;50.802;4.336;2024-03-17T09:48:27;14.30;99.90
14471;DHT22;7321;50.802;4.336;2024-03-17T09:51:01;14.30;99.90
14471;DHT22;7321;50.802;4.336;2024-03-17T09:53:34;14.20;99.90
14471;DHT22;7321;50.802;4.336;2024-03-17T09:56:12;14.30;99.90
14471;DHT22;7321;50.802;4.336;2024-03-17T09:58:39;14.40;99.90
14471;DHT22;7321;50.802;4.336;2024-03-17T10:01:05;14.20;99.90
14471;DHT22;7321;50.802;4.336;2024-03-17T10:06:30;14.20;99.90
14471;DHT22;7321;50.802;4.336;2024-03-17T10:09:00;14.00;99.90
14471;DHT22;7321;50.802;4.336;2024-03-17T10:11:41;14.00;99.90
14471;DHT22;7321;50.802;4.336;2024-03-17T10:14:08;14.00;99.90
14471;DHT22;7321;50.802;4.336;2024-03-17T10:16:38;14.00;99.90
14471;DHT22;7321;50.802;4.336;2024-03-17T10:19:15;14.10;99.90
14471;DHT22;7321;50.802;4.336;2024-03-17T10:21:44;14.20;99.90
14471;DHT22;7321;50.802;4.336;2024-03-17T10:24:20;14.30;99.90
14471;DHT22;7321;50.802;4.336;2024-03-17T10:29:32;14.40;99.90
14471;DHT22;7321;50.802;4.336;2024-03-17T10:32:15;14.40;99.90
14471;DHT22;7321;50.802;4.336;2024-03-17T10:34:44;14.50;99.90
14471;DHT22;7321;50.802;4.336;2024-03-17T10:37:13;14.70;99.90
14471;DHT22;7321;50.802;4.336;2024-03-17T10:39:51;14.70;99.90
14471;DHT22;7321;50.802;4.336;2024-03-17T10:42:28;14.90;99.90
14471;DHT22;7321;50.802;4.336;2024-03-17T10:44:54;15.00;99.90
14471;DHT22;7321;50.802;4.336;2024-03-17T10:47:27;15.00;99.90
14471;DHT22;7321;50.802;4.336;2024-03-17T10:49:55;15.20;99.90
14471;DHT22;7321;50.802;4.336;2024-03-17T10:52:22;14.80;99.90
14471;DHT22;7321;50.802;4.336;2024-03-17T10:54:55;14.90;99.90
14471;DHT22;7321;50.802;4.336;2024-03-17T10:59:49;14.90;99.90
14471;DHT22;7321;50.802;4.336;2024-03-17T11:02:26;15.10;99.90
14471;DHT22;7321;50.802;4.336;2024-03-17T11:05:20;15.20;99.90
14471;DHT22;7321;50.802;4.336;2024-03-17T11:07:47;15.40;99.90
14471;DHT22;7321;50.802;4.336;2024-03-17T11:10:24;15.50;99.90
14471;DHT22;7321;50.802;4.336;2024-03-17T11:12:51;15.70;99.90
14471;DHT22;7321;50.802;4.336;2024-03-17T11:17:51;16.00;99.90
14471;DHT22;7321;50.802;4.336;2024-03-17T11:20:27;16.00;99.90
14471;DHT22;7321;50.802;4.336;2024-03-17T11:23:01;16.20;99.90
14471;DHT22;7321;50.802;4.336;2024-03-17T11:28:44;16.30;99.90
14471;DHT22;7321;50.802;4.336;2024-03-17T11:31:04;16.10;99.90
14471;DHT22;7321;50.802;4.336;2024-03-17T11:47:06;16.60;99.90
14471;DHT22;7321;50.802;4.336;2024-03-17T11:49:39;16.60;99.90
14471;DHT22;7321;50.802;4.336;2024-03-17T11:52:15;16.70;99.90
14471;DHT22;7321;50.802;4.336;2024-03-17T11:54:45;16.70;99.90
14471;DHT22;7321;50.802;4.336;2024-03-17T11:57:21;16.40;99.90
14471;DHT22;7321;50.802;4.336;2024-03-17T11:59:51;16.20;99.90
14471;DHT22;7321;50.802;4.336;2024-03-17T12:02:22;16.10;99.90
14471;DHT22;7321;50.802;4.336;2024-03-17T12:04:49;16.00;99.90
14471;DHT22;7321;50.802;4.336;2024-03-17T12:07:20;15.80;99.90
14471;DHT22;7321;50.802;4.336;2024-03-17T12:09:47;15.80;99.90
14471;DHT22;7321;50.802;4.336;2024-03-17T12:12:18;16.00;99.90
14471;DHT22;7321;50.802;4.336;2024-03-17T12:14:45;15.90;99.90
14471;DHT22;7321;50.802;4.336;2024-03-17T12:17:12;16.30;99.90
14471;DHT22;7321;50.802;4.336;2024-03-17T12:19:44;16.60;99.90
14471;DHT22;7321;50.802;4.336;2024-03-17T12:22:18;16.70;99.90
14471;DHT22;7321;50.802;4.336;2024-03-17T12:24:48;16.70;99.90
14471;DHT22;7321;50.802;4.336;2024-03-17T12:27:32;16.90;99.90
14471;DHT22;7321;50.802;4.336;2024-03-17T12:29:58;17.00;99.90
14471;DHT22;7321;50.802;4.336;2024-03-17T12:32:25;16.90;99.90
14471;DHT22;7321;50.802;4.336;2024-03-17T12:34:55;17.20;99.90
14471;DHT22;7321;50.802;4.336;2024-03-17T12:37:26;17.10;99.90
14471;DHT22;7321;50.802;4.336;2024-03-17T12:39:56;17.20;99.90
14471;DHT22;7321;50.802;4.336;2024-03-17T12:42:27;17.10;99.90
14471;DHT22;7321;50.802;4.336;2024-03-17T12:44:55;16.90;99.90
14471;DHT22;7321;50.802;4.336;2024-03-17T12:47:22;16.90;99.90
14471;DHT22;7321;50.802;4.336;2024-03-17T12:52:29;16.90;99.90
14471;DHT22;7321;50.802;4.336;2024-03-17T12:55:05;16.80;99.90
14471;DHT22;7321;50.802;4.336;2024-03-17T12:58:06;16.60;99.90
14471;DHT22;7321;50.802;4.336;2024-03-17T13:01:04;16.60;99.90
14471;DHT22;7321;50.802;4.336;2024-03-17T13:03:35;16.90;99.90
14471;DHT22;7321;50.802;4.336;2024-03-17T13:06:02;16.80;99.90
14471;DHT22;7321;50.802;4.336;2024-03-17T13:08:28;16.60;99.90
14471;DHT22;7321;50.802;4.336;2024-03-17T13:10:54;16.70;99.90
14471;DHT22;7321;50.802;4.336;2024-03-17T13:13:20;16.30;99.90
14471;DHT22;7321;50.802;4.336;2024-03-17T13:15:46;16.20;99.90
14471;DHT22;7321;50.802;4.336;2024-03-17T13:18:19;16.30;99.90
14471;DHT22;7321;50.802;4.336;2024-03-17T13:20:46;16.30;99.90
14471;DHT22;7321;50.802;4.336;2024-03-17T13:23:12;16.20;99.90
14471;DHT22;7321;50.802;4.336;2024-03-17T13:25:38;16.10;99.90
14471;DHT22;7321;50.802;4.336;2024-03-17T13:28:05;16.20;99.90
14471;DHT22;7321;50.802;4.336;2024-03-17T13:30:33;16.10;99.90
14471;DHT22;7321;50.802;4.336;2024-03-17T13:33:06;15.90;99.90
14471;DHT22;7321;50.802;4.336;2024-03-17T13:35:37;15.90;99.90
14471;DHT22;7321;50.802;4.336;2024-03-17T13:38:10;15.80;99.90
14471;DHT22;7321;50.802;4.336;2024-03-17T13:40:38;15.80;99.90
14471;DHT22;7321;50.802;4.336;2024-03-17T13:43:05;16.00;99.90
14471;DHT22;7321;50.802;4.336;2024-03-17T13:46:00;16.20;99.90
14471;DHT22;7321;50.802;4.336;2024-03-17T13:48:26;16.30;99.90
14471;DHT22;7321;50.802;4.336;2024-03-17T13:50:51;16.20;99.90
14471;DHT22;7321;50.802;4.336;2024-03-17T13:53:17;16.20;99.90
14471;DHT22;7321;50.802;4.336;2024-03-17T13:55:44;16.30;99.90
14471;DHT22;7321;50.802;4.336;2024-03-17T13:58:09;16.50;99.90
14471;DHT22;7321;50.802;4.336;2024-03-17T14:00:35;16.70;99.90
14471;DHT22;7321;50.802;4.336;2024-03-17T14:03:03;16.40;99.90
14471;DHT22;7321;50.802;4.336;2024-03-17T14:05:29;16.10;99.90
14471;DHT22;7321;50.802;4.336;2024-03-17T14:07:55;16.10;99.90
14471;DHT22;7321;50.802;4.336;2024-03-17T14:10:22;16.00;99.90
14471;DHT22;7321;50.802;4.336;2024-03-17T14:12:48;16.00;99.90
14471;DHT22;7321;50.802;4.336;2024-03-17T14:15:15;16.10;99.90
14471;DHT22;7321;50.802;4.336;2024-03-17T14:17:42;16.20;99.90
14471;DHT22;7321;50.802;4.336;2024-03-17T14:20:09;16.30;99.90
14471;DHT22;7321;50.802;4.336;2024-03-17T14:22:43;16.10;99.90
14471;DHT22;7321;50.802;4.336;2024-03-17T14:25:10;16.00;99.90
14471;DHT22;7321;50.802;4.336;2024-03-17T14:27:38;15.80;99.90
14471;DHT22;7321;50.802;4.336;2024-03-17T14:30:05;15.70;99.90
14471;DHT22;7321;50.802;4.336;2024-03-17T14:32:31;15.80;99.90
14471;DHT22;7321;50.802;4.336;2024-03-17T14:34:57;15.90;99.90
14471;DHT22;7321;50.802;4.336;2024-03-17T14:37:23;16.00;99.90
14471;DHT22;7321;50.802;4.336;2024-03-17T14:39:51;15.90;99.90
14471;DHT22;7321;50.802;4.336;2024-03-17T14:42:17;16.10;99.90
14471;DHT22;7321;50.802;4.336;2024-03-17T14:44:43;16.30;99.90
14471;DHT22;7321;50.802;4.336;2024-03-17T14:47:08;16.40;99.90
14471;DHT22;7321;50.802;4.336;2024-03-17T14:49:36;16.40;99.90
14471;DHT22;7321;50.802;4.336;2024-03-17T14:52:02;16.30;99.90
14471;DHT22;7321;50.802;4.336;2024-03-17T14:54:28;16.00;99.90
14471;DHT22;7321;50.802;4.336;2024-03-17T14:56:54;15.80;99.90
14471;DHT22;7321;50.802;4.336;2024-03-17T14:59:20;15.80;99.90
14471;DHT22;7321;50.802;4.336;2024-03-17T15:01:46;15.80;99.90
14471;DHT22;7321;50.802;4.336;2024-03-17T15:04:13;15.90;99.90
14471;DHT22;7321;50.802;4.336;2024-03-17T15:06:41;15.80;99.90
14471;DHT22;7321;50.802;4.336;2024-03-17T15:09:06;15.80;99.90
14471;DHT22;7321;50.802;4.336;2024-03-17T15:11:34;15.70;99.90
14471;DHT22;7321;50.802;4.336;2024-03-17T15:13:59;15.40;99.90
14471;DHT22;7321;50.802;4.336;2024-03-17T15:16:25;15.20;99.90
14471;DHT22;7321;50.802;4.336;2024-03-17T15:18:51;15.30;99.90
14471;DHT22;7321;50.802;4.336;2024-03-17T15:21:17;15.20;99.90
14471;DHT22;7321;50.802;4.336;2024-03-17T15:23:46;15.00;99.90
14471;DHT22;7321;50.802;4.336;2024-03-17T15:26:11;15.10;99.90
14471;DHT22;7321;50.802;4.336;2024-03-17T15:28:42;15.00;99.90
14471;DHT22;7321;50.802;4.336;2024-03-17T15:31:09;14.90;99.90
14471;DHT22;7321;50.802;4.336;2024-03-17T15:33:37;14.80;99.90
14471;DHT22;7321;50.802;4.336;2024-03-17T15:36:07;14.90;99.90
14471;DHT22;7321;50.802;4.336;2024-03-17T15:38:37;14.90;99.90
14471;DHT22;7321;50.802;4.336;2024-03-17T15:41:10;14.90;99.90
14471;DHT22;7321;50.802;4.336;2024-03-17T15:43:42;14.70;99.90
14471;DHT22;7321;50.802;4.336;2024-03-17T15:46:17;14.60;99.90
14471;DHT22;7321;50.802;4.336;2024-03-17T15:48:44;14.60;99.90
14471;DHT22;7321;50.802;4.336;2024-03-17T15:51:10;14.70;99.90
14471;DHT22;7321;50.802;4.336;2024-03-17T15:53:36;14.60;99.90
14471;DHT22;7321;50.802;4.336;2024-03-17T15:56:04;14.60;99.90
14471;DHT22;7321;50.802;4.336;2024-03-17T15:58:32;14.70;99.90
14471;DHT22;7321;50.802;4.336;2024-03-17T16:00:58;14.70;99.90
14471;DHT22;7321;50.802;4.336;2024-03-17T16:03:30;14.70;99.90
14471;DHT22;7321;50.802;4.336;2024-03-17T16:06:06;14.50;99.90
14471;DHT22;7321;50.802;4.336;2024-03-17T16:08:40;14.50;99.90
14471;DHT22;7321;50.802;4.336;2024-03-17T16:11:06;14.50;99.90
14471;DHT22;7321;50.802;4.336;2024-03-17T16:13:36;14.60;99.90
14471;DHT22;7321;50.802;4.336;2024-03-17T16:16:06;14.60;99.90
14471;DHT22;7321;50.802;4.336;2024-03-17T16:18:32;14.50;99.90
14471;DHT22;7321;50.802;4.336;2024-03-17T16:23:38;14.40;99.90
14471;DHT22;7321;50.802;4.336;2024-03-17T16:26:04;14.40;99.90
14471;DHT22;7321;50.802;4.336;2024-03-17T16:28:30;14.30;99.90